Thalia — FPCS — position and weather

sailwx.info

Track history (hours):
 
Tides and Currents Weather Stations Pressure Air Temp Water Temp Dewpoint Dewpoint Depression Visibility Wind Speed Wind Dir Waves Ship Positions

Oceanographic research ship Thalia (France)

Detailed information on ship capabilities available from University of Delaware's Ocean Information Center.

Last reported at 2017-May-22 21:00 UTC. Time now 2017-May-22 21:15 UTC.
Position N 50°09' E 000°05'.

Length 25 m; beam 7 m.

MMSI: 227270000.

Date/timePositionNaut miles runAvg speedWind from/ knotsBaromVisibWave heightAir tempDewpointWater temp
2017-May-22 21:00N 50°09' E 000°05'3 5.6
2017-May-22 20:30N 50°08' E 000°01'3 6.0
2017-May-22 20:00N 50°06' W 000°03'2 3.7
2017-May-22 19:30N 50°07' W 000°06'2 2.5
2017-May-22 18:53N 50°07' W 000°04'20654.4
2017-May-22 15:06N 48°22' W 004°34'0 0.0
2017-May-22 15:01N 48°22' W 004°34'31111158.7
2017-May-22 15:01N 48°08' W 005°16'249168.6
2017-May-22 13:32N 50°15' E 000°12'0 4.4
2017-May-22 13:28N 50°14' E 000°12'2 4.3
2017-May-22 13:00N 50°13' E 000°09'2 4.1
2017-May-22 12:28N 50°12' E 000°06'3 4.1
2017-May-22 11:45N 50°11' E 000°02'1 4.2
2017-May-22 11:30N 50°10' E 000°01'1 2.9
2017-May-22 11:00N 50°11' W 000°01'4 2.1
2017-May-22 09:03N 50°14' E 000°03'0 5.2
2017-May-22 09:00N 50°14' E 000°03'3 5.4
2017-May-22 08:30N 50°12' W 000°01'2 4.4
2017-May-22 08:00N 50°13' W 000°04'3 5.9
2017-May-22 07:27N 50°14' W 000°09'3 6.4
2017-May-22 07:00N 50°14' W 000°13'3 6.6
2017-May-22 06:30N 50°14' W 000°19'3 7.0
2017-May-22 06:00N 50°14' W 000°24'4 7.3
2017-May-22 05:30N 50°13' W 000°30'4 7.4
2017-May-22 05:00N 50°12' W 000°36'7 4.3
2017-May-22 03:27N 50°06' W 000°34'7 4.0
2017-May-22 01:49N 50°07' W 000°24'2 5.4
2017-May-22 01:28N 50°08' W 000°21'3 5.4
2017-May-22 00:59N 50°08' W 000°17'3 5.5
2017-May-22 00:28N 50°09' W 000°12'2 3.4
2017-May-22 00:01N 50°09' W 000°10'5 6.5
2017-May-21 23:15N 50°10' W 000°02'1 5.1
2017-May-21 23:01N 50°11' W 000°03'3 5.4
2017-May-21 22:30N 50°14' W 000°04'2 4.4
2017-May-21 22:00N 50°16' W 000°05'7 4.3
2017-May-21 20:27N 50°09' W 000°04'1 3.0
2017-May-21 20:00N 50°10' W 000°06'3 5.5
2017-May-21 19:31N 50°12' W 000°07'3 5.6
2017-May-21 19:01N 50°15' W 000°08'2 4.7
2017-May-21 18:31N 50°17' W 000°10'2 3.9
2017-May-21 17:58N 50°15' W 000°11'7 5.9
2017-May-21 16:50N 50°09' W 000°08'2 4.5
2017-May-21 16:30N 50°09' W 000°10'2 5.0
2017-May-21 16:00N 50°12' W 000°11'3 5.3
2017-May-21 15:30N 50°14' W 000°12'3 5.4
2017-May-21 14:57N 50°17' W 000°13'2 3.6
2017-May-21 14:31N 50°18' W 000°16'8 5.4
2017-May-21 12:58N 50°09' W 000°13'1 2.8
2017-May-21 12:30N 50°08' W 000°13'2 3.3
2017-May-21 11:58N 50°09' W 000°14'3 5.1
2017-May-21 11:28N 50°12' W 000°15'3 0.9
2017-May-21 08:19N 50°09' W 000°17'1 3.4
2017-May-21 08:00N 50°09' W 000°19'3 5.1
2017-May-21 07:29N 50°12' W 000°20'6 1.8
2017-May-21 04:00N 50°07' W 000°25'7 1.8
2017-May-21 00:16N 50°11' W 000°33'2 5.6
2017-May-20 23:59N 50°10' W 000°32'3 5.7
2017-May-20 23:31N 50°07' W 000°31'  
2017-May-13 07:10N 49°55' E 000°19'2 9.7
2017-May-13 07:00N 49°54' E 000°16'5 9.4
2017-May-13 06:30N 49°54' E 000°09'5 9.0
2017-May-13 06:00N 49°53' E 000°02'4 8.9
2017-May-13 05:30N 49°53' W 000°04'4 8.7
2017-May-13 05:00N 49°52' W 000°11'4 8.5
2017-May-13 04:30N 49°52' W 000°18'4 8.3
2017-May-13 03:59N 49°52' W 000°24'4 8.1
2017-May-13 03:27N 49°51' W 000°31'4 7.9
2017-May-13 02:59N 49°51' W 000°37'4 8.0
2017-May-13 02:27N 49°50' W 000°43'  
Track history (hours):
 
Tides and Currents Weather Stations Pressure Air Temp Water Temp Dewpoint Dewpoint Depression Visibility Wind Speed Wind Dir Waves Ship Positions

Oceanographic research ship Thalia (France)

Detailed information on ship capabilities available from University of Delaware's Ocean Information Center.

Last reported at 2017-May-22 21:00 UTC. Time now 2017-May-22 21:15 UTC.
Position N 50°09' E 000°05'.

Length 25 m; beam 7 m.

MMSI: 227270000.

Date/timePositionNaut miles runAvg speedWind from/ knotsBaromVisibWave heightAir tempDewpointWater temp
2017-May-22 21:00N 50°09' E 000°05'3 5.6
2017-May-22 20:30N 50°08' E 000°01'3 6.0
2017-May-22 20:00N 50°06' W 000°03'2 3.7
2017-May-22 19:30N 50°07' W 000°06'2 2.5
2017-May-22 18:53N 50°07' W 000°04'20654.4
2017-May-22 15:06N 48°22' W 004°34'0 0.0
2017-May-22 15:01N 48°22' W 004°34'31111158.7
2017-May-22 15:01N 48°08' W 005°16'249168.6
2017-May-22 13:32N 50°15' E 000°12'0 4.4
2017-May-22 13:28N 50°14' E 000°12'2 4.3
2017-May-22 13:00N 50°13' E 000°09'2 4.1
2017-May-22 12:28N 50°12' E 000°06'3 4.1
2017-May-22 11:45N 50°11' E 000°02'1 4.2
2017-May-22 11:30N 50°10' E 000°01'1 2.9
2017-May-22 11:00N 50°11' W 000°01'4 2.1
2017-May-22 09:03N 50°14' E 000°03'0 5.2
2017-May-22 09:00N 50°14' E 000°03'3 5.4
2017-May-22 08:30N 50°12' W 000°01'2 4.4
2017-May-22 08:00N 50°13' W 000°04'3 5.9
2017-May-22 07:27N 50°14' W 000°09'3 6.4
2017-May-22 07:00N 50°14' W 000°13'3 6.6
2017-May-22 06:30N 50°14' W 000°19'3 7.0
2017-May-22 06:00N 50°14' W 000°24'4 7.3
2017-May-22 05:30N 50°13' W 000°30'4 7.4
2017-May-22 05:00N 50°12' W 000°36'7 4.3
2017-May-22 03:27N 50°06' W 000°34'7 4.0
2017-May-22 01:49N 50°07' W 000°24'2 5.4
2017-May-22 01:28N 50°08' W 000°21'3 5.4
2017-May-22 00:59N 50°08' W 000°17'3 5.5
2017-May-22 00:28N 50°09' W 000°12'2 3.4
2017-May-22 00:01N 50°09' W 000°10'5 6.5
2017-May-21 23:15N 50°10' W 000°02'1 5.1
2017-May-21 23:01N 50°11' W 000°03'3 5.4
2017-May-21 22:30N 50°14' W 000°04'2 4.4
2017-May-21 22:00N 50°16' W 000°05'7 4.3
2017-May-21 20:27N 50°09' W 000°04'1 3.0
2017-May-21 20:00N 50°10' W 000°06'3 5.5
2017-May-21 19:31N 50°12' W 000°07'3 5.6
2017-May-21 19:01N 50°15' W 000°08'2 4.7
2017-May-21 18:31N 50°17' W 000°10'2 3.9
2017-May-21 17:58N 50°15' W 000°11'7 5.9
2017-May-21 16:50N 50°09' W 000°08'2 4.5
2017-May-21 16:30N 50°09' W 000°10'2 5.0
2017-May-21 16:00N 50°12' W 000°11'3 5.3
2017-May-21 15:30N 50°14' W 000°12'3 5.4
2017-May-21 14:57N 50°17' W 000°13'2 3.6
2017-May-21 14:31N 50°18' W 000°16'8 5.4
2017-May-21 12:58N 50°09' W 000°13'1 2.8
2017-May-21 12:30N 50°08' W 000°13'2 3.3
2017-May-21 11:58N 50°09' W 000°14'3 5.1
2017-May-21 11:28N 50°12' W 000°15'3 0.9
2017-May-21 08:19N 50°09' W 000°17'1 3.4
2017-May-21 08:00N 50°09' W 000°19'3 5.1
2017-May-21 07:29N 50°12' W 000°20'6 1.8
2017-May-21 04:00N 50°07' W 000°25'7 1.8
2017-May-21 00:16N 50°11' W 000°33'2 5.6
2017-May-20 23:59N 50°10' W 000°32'3 5.7
2017-May-20 23:31N 50°07' W 000°31'  
2017-May-13 07:10N 49°55' E 000°19'2 9.7
2017-May-13 07:00N 49°54' E 000°16'5 9.4
2017-May-13 06:30N 49°54' E 000°09'5 9.0
2017-May-13 06:00N 49°53' E 000°02'4 8.9
2017-May-13 05:30N 49°53' W 000°04'4 8.7
2017-May-13 05:00N 49°52' W 000°11'4 8.5
2017-May-13 04:30N 49°52' W 000°18'4 8.3
2017-May-13 03:59N 49°52' W 000°24'4 8.1
2017-May-13 03:27N 49°51' W 000°31'4 7.9
2017-May-13 02:59N 49°51' W 000°37'4 8.0
2017-May-13 02:27N 49°50' W 000°43'  

Dump ship's entire track history